createdAt,value
2022-08-14T00:02:05.371Z,70.70
2022-08-14T00:04:41.986Z,70.90
2022-08-14T00:07:14.028Z,71.20
2022-08-14T00:09:56.027Z,71.40
2022-08-14T00:12:33.147Z,71.60
2022-08-14T00:15:07.484Z,71.00
2022-08-14T00:17:38.183Z,72.70
2022-08-14T00:20:14.720Z,72.00
2022-08-14T00:22:57.617Z,71.80
2022-08-14T00:25:26.715Z,72.00
2022-08-14T00:28:15.152Z,72.80
2022-08-14T00:30:45.036Z,72.80
2022-08-14T00:33:14.524Z,72.80
2022-08-14T00:36:35.938Z,72.60
2022-08-14T00:38:29.796Z,72.80
2022-08-14T00:40:59.009Z,73.70
2022-08-14T00:43:25.820Z,73.10
2022-08-14T00:46:03.101Z,73.60
2022-08-14T00:48:36.778Z,73.80
2022-08-14T00:51:07.616Z,73.20
2022-08-14T00:53:36.341Z,74.10
2022-08-14T00:56:07.201Z,74.00
2022-08-14T00:58:36.381Z,74.10
2022-08-14T01:01:12.710Z,74.20
2022-08-14T01:03:42.387Z,74.00
2022-08-14T01:06:12.011Z,74.00
2022-08-14T01:08:58.121Z,74.50
2022-08-14T01:11:35.286Z,74.50
2022-08-14T01:14:05.019Z,74.80
2022-08-14T01:16:53.093Z,74.70
2022-08-14T01:19:41.231Z,75.70
2022-08-14T01:22:12.287Z,75.80
2022-08-14T01:24:41.316Z,75.80
2022-08-14T01:27:24.994Z,75.90
2022-08-14T01:30:00.719Z,76.40
2022-08-14T01:32:42.515Z,76.70
2022-08-14T01:35:18.269Z,77.40
2022-08-14T01:37:58.280Z,77.50
2022-08-14T01:40:33.044Z,77.60
2022-08-14T01:43:02.558Z,78.50
2022-08-14T01:45:31.510Z,77.80
2022-08-14T01:48:13.308Z,77.80
2022-08-14T01:50:42.036Z,78.00
2022-08-14T01:53:09.542Z,78.50
2022-08-14T01:55:40.510Z,78.50
2022-08-14T01:58:18.432Z,78.90
2022-08-14T02:00:48.149Z,79.00
2022-08-14T02:03:16.609Z,79.00
2022-08-14T02:05:43.531Z,79.30
2022-08-14T02:08:10.770Z,79.30
2022-08-14T02:10:46.803Z,79.60
2022-08-14T02:13:16.554Z,79.70
2022-08-14T02:15:45.446Z,79.80
2022-08-14T02:18:15.526Z,79.90
2022-08-14T02:20:42.673Z,80.20
2022-08-14T02:23:09.696Z,79.90
2022-08-14T02:25:39.482Z,79.90
2022-08-14T02:28:22.428Z,80.10
2022-08-14T02:30:53.367Z,80.20
2022-08-14T02:33:22.591Z,80.40
2022-08-14T02:35:53.274Z,80.60
2022-08-14T02:38:30.144Z,80.60
2022-08-14T02:41:01.450Z,81.30
2022-08-14T02:43:36.502Z,81.40
2022-08-14T02:46:06.398Z,81.80
2022-08-14T02:49:02.507Z,81.80
2022-08-14T02:51:30.613Z,81.90
2022-08-14T02:53:58.495Z,81.60
2022-08-14T02:56:30.675Z,82.60
2022-08-14T02:59:17.912Z,82.60
2022-08-14T03:01:50.923Z,82.50
2022-08-14T03:04:22.004Z,82.80
2022-08-14T03:06:57.625Z,83.10
2022-08-14T03:09:42.319Z,87.30
2022-08-14T03:12:26.978Z,88.80
2022-08-14T03:15:16.288Z,89.80
2022-08-14T03:20:28.266Z,82.80
2022-08-14T03:23:00.182Z,83.20
2022-08-14T03:25:34.134Z,83.70
2022-08-14T03:28:14.453Z,83.70
2022-08-14T03:30:57.587Z,83.50
2022-08-14T03:33:27.943Z,83.60
2022-08-14T03:37:37.370Z,84.00
2022-08-14T03:39:14.169Z,84.20
2022-08-14T03:41:51.413Z,85.40
2022-08-14T03:45:25.561Z,84.60
2022-08-14T03:47:06.441Z,84.90
2022-08-14T03:49:34.158Z,85.20
2022-08-14T03:52:04.929Z,85.30
2022-08-14T03:54:52.631Z,85.50
2022-08-14T03:57:20.275Z,85.40
2022-08-14T03:59:49.979Z,85.70
2022-08-14T04:02:33.002Z,85.60
2022-08-14T04:05:16.735Z,86.90
2022-08-14T04:07:49.752Z,87.50
2022-08-14T04:10:32.635Z,88.10
2022-08-14T04:13:03.260Z,87.30
2022-08-14T04:15:32.196Z,87.40
2022-08-14T04:18:19.108Z,87.30
2022-08-14T04:20:54.388Z,88.20
2022-08-14T04:23:23.631Z,88.10
2022-08-14T04:25:56.036Z,87.70
2022-08-14T04:29:07.409Z,88.40
2022-08-14T04:31:11.449Z,88.40
2022-08-14T04:33:38.709Z,88.80
2022-08-14T04:36:06.065Z,89.10
2022-08-14T04:38:54.905Z,89.00
2022-08-14T04:41:43.268Z,89.50
2022-08-14T04:44:10.177Z,89.40
2022-08-14T04:47:12.058Z,89.60
2022-08-14T04:49:46.703Z,90.10
2022-08-14T04:52:25.047Z,90.10
2022-08-14T04:54:52.495Z,90.10
2022-08-14T04:57:21.925Z,90.00
2022-08-14T04:59:50.910Z,89.80
2022-08-14T05:02:18.303Z,90.00
2022-08-14T05:04:57.384Z,90.20
2022-08-14T05:07:46.404Z,90.50
2022-08-14T05:10:16.724Z,90.60
2022-08-14T05:13:13.260Z,90.70
2022-08-14T05:15:40.823Z,90.70
2022-08-14T05:18:37.162Z,90.80
2022-08-14T05:21:58.292Z,90.80
2022-08-14T05:23:50.005Z,90.80
2022-08-14T05:26:18.295Z,90.80
2022-08-14T05:28:48.483Z,90.80
2022-08-14T05:31:20.314Z,91.10
2022-08-14T05:33:56.788Z,91.00
2022-08-14T05:36:25.264Z,91.00
2022-08-14T05:38:53.995Z,91.20
2022-08-14T05:41:22.923Z,91.30
2022-08-14T05:43:54.439Z,91.20
2022-08-14T05:46:24.858Z,91.10
2022-08-14T05:48:57.487Z,91.20
2022-08-14T05:51:25.673Z,91.20
2022-08-14T05:54:01.385Z,91.50
2022-08-14T05:56:37.273Z,91.40
2022-08-14T05:59:05.511Z,91.50
2022-08-14T06:01:32.481Z,91.40
2022-08-14T06:04:00.435Z,91.60
2022-08-14T06:06:27.243Z,91.50
2022-08-14T06:08:54.272Z,91.90
2022-08-14T06:11:27.968Z,91.60
2022-08-14T06:13:58.646Z,91.90
2022-08-14T06:16:25.928Z,92.10
2022-08-14T06:18:53.269Z,92.30
2022-08-14T06:21:22.648Z,92.30
2022-08-14T06:23:49.931Z,92.30
2022-08-14T06:26:20.595Z,92.30
2022-08-14T06:28:52.117Z,92.20
2022-08-14T06:31:20.707Z,92.30
2022-08-14T06:35:09.491Z,92.50
2022-08-14T06:36:36.667Z,92.40
2022-08-14T06:39:04.328Z,92.80
2022-08-14T06:41:58.176Z,92.60
2022-08-14T06:44:30.624Z,92.30
2022-08-14T06:47:04.311Z,92.40
2022-08-14T06:49:44.070Z,92.30
2022-08-14T06:52:15.267Z,92.10
2022-08-14T06:54:43.644Z,92.10
2022-08-14T06:57:11.665Z,92.00
2022-08-14T06:59:40.093Z,91.80
2022-08-14T07:02:28.823Z,91.80
2022-08-14T07:05:16.877Z,91.90
2022-08-14T07:07:48.505Z,91.90
2022-08-14T07:10:17.310Z,91.70
2022-08-14T07:13:01.899Z,91.80
2022-08-14T07:15:34.195Z,91.50
2022-08-14T07:18:09.023Z,91.50
2022-08-14T07:20:36.345Z,91.30
2022-08-14T07:23:09.147Z,91.30
2022-08-14T07:25:39.429Z,91.20
2022-08-14T07:28:21.341Z,91.10
2022-08-14T07:30:51.169Z,90.90
2022-08-14T07:33:20.882Z,90.80
2022-08-14T07:35:58.695Z,90.80
2022-08-14T07:38:34.073Z,90.80
2022-08-14T07:41:12.057Z,90.80
2022-08-14T07:43:42.801Z,90.60
2022-08-14T07:46:10.967Z,90.50
2022-08-14T07:48:43.893Z,90.30
2022-08-14T07:51:11.504Z,90.20
2022-08-14T07:53:40.484Z,90.30
2022-08-14T07:56:22.026Z,90.30
2022-08-14T07:58:58.759Z,90.00
2022-08-14T08:01:27.823Z,90.10
2022-08-14T08:04:00.185Z,89.80
2022-08-14T08:06:29.564Z,87.90
2022-08-14T08:09:02.918Z,89.30
2022-08-14T08:11:37.563Z,88.60
2022-08-14T08:14:16.336Z,88.40
2022-08-14T08:16:47.441Z,88.80
2022-08-14T08:19:19.237Z,87.90
2022-08-14T08:21:47.180Z,87.30
2022-08-14T08:24:20.128Z,87.60
2022-08-14T08:26:50.307Z,87.30
2022-08-14T08:29:24.925Z,87.40
2022-08-14T08:31:55.265Z,86.00
2022-08-14T08:34:23.729Z,86.10
2022-08-14T08:36:51.647Z,85.50
2022-08-14T08:39:22.692Z,85.90
2022-08-14T08:41:53.635Z,85.80
2022-08-14T08:44:32.195Z,85.30
2022-08-14T08:47:05.763Z,85.00
2022-08-14T08:49:58.914Z,84.80
2022-08-14T08:52:31.670Z,90.80
2022-08-14T08:55:00.735Z,83.70
2022-08-14T08:57:33.583Z,83.60
2022-08-14T09:00:02.143Z,84.10
2022-08-14T09:02:29.435Z,83.30
2022-08-14T09:05:03.845Z,83.60
2022-08-14T09:07:31.444Z,83.50
2022-08-14T09:10:00.332Z,82.60
2022-08-14T09:12:33.336Z,81.90
2022-08-14T09:15:09.009Z,81.80
2022-08-14T09:17:41.345Z,82.70
2022-08-14T09:20:11.532Z,81.40
2022-08-14T09:22:47.211Z,81.20
2022-08-14T09:25:16.909Z,81.40
2022-08-14T09:27:43.822Z,81.10
2022-08-14T09:30:31.542Z,80.00
2022-08-14T09:33:10.915Z,79.00
2022-08-14T09:36:16.772Z,77.60
2022-08-14T09:39:03.942Z,85.10
2022-08-14T09:42:21.954Z,94.40
2022-08-14T09:44:51.173Z,76.40
2022-08-14T09:47:18.817Z,86.90
2022-08-14T09:49:52.226Z,90.50
2022-08-14T09:52:33.245Z,79.90
2022-08-14T09:55:02.687Z,75.60
2022-08-14T09:57:31.735Z,75.10
2022-08-14T10:00:09.932Z,75.30
2022-08-14T10:03:05.137Z,72.60
2022-08-14T10:05:38.020Z,71.40
2022-08-14T10:08:20.553Z,71.30
2022-08-14T10:10:57.321Z,71.00
2022-08-14T10:13:42.945Z,70.30
2022-08-14T10:16:26.018Z,69.60
2022-08-14T10:19:09.729Z,69.70
2022-08-14T10:21:45.746Z,68.70
2022-08-14T10:24:36.944Z,68.10
2022-08-14T10:27:05.220Z,68.50
2022-08-14T10:29:41.118Z,67.50
2022-08-14T10:32:17.806Z,67.40
2022-08-14T10:34:46.781Z,68.20
2022-08-14T10:37:23.002Z,67.00
2022-08-14T10:40:10.352Z,66.20
2022-08-14T10:42:40.677Z,65.80
2022-08-14T10:45:35.535Z,66.80
2022-08-14T10:48:25.066Z,75.80
2022-08-14T10:51:01.144Z,69.50
2022-08-14T10:53:32.991Z,64.80
2022-08-14T10:56:04.442Z,64.00
2022-08-14T10:58:34.257Z,64.00
2022-08-14T11:01:05.650Z,64.20
2022-08-14T11:03:56.570Z,63.70
2022-08-14T11:06:27.283Z,64.70
2022-08-14T11:08:55.287Z,63.50
2022-08-14T11:11:35.854Z,63.70
2022-08-14T11:14:09.313Z,64.20
2022-08-14T11:19:08.461Z,62.50
2022-08-14T11:21:40.548Z,63.30
2022-08-14T11:24:54.050Z,63.40
2022-08-14T11:27:05.598Z,64.00
2022-08-14T11:29:36.064Z,63.50
2022-08-14T11:32:04.355Z,64.20
2022-08-14T11:34:35.966Z,63.50
2022-08-14T11:37:20.741Z,62.80
2022-08-14T11:39:53.862Z,63.10
2022-08-14T11:42:57.806Z,62.20
2022-08-14T11:45:18.689Z,61.80
2022-08-14T11:48:12.942Z,64.10
2022-08-14T11:50:38.553Z,62.40
2022-08-14T11:53:07.856Z,62.30
2022-08-14T11:55:38.803Z,62.30
2022-08-14T11:58:11.752Z,62.30
2022-08-14T12:00:53.838Z,62.10
2022-08-14T12:03:27.209Z,62.10
2022-08-14T12:06:27.796Z,61.40
2022-08-14T12:09:00.140Z,60.30
2022-08-14T12:11:43.910Z,60.50
2022-08-14T12:14:31.096Z,60.50
2022-08-14T12:17:11.911Z,60.40
2022-08-14T12:19:54.403Z,59.80
2022-08-14T12:22:42.333Z,61.60
2022-08-14T12:25:24.932Z,63.40
2022-08-14T12:27:59.308Z,60.60
2022-08-14T12:30:43.000Z,60.90
2022-08-14T12:33:33.844Z,62.30
2022-08-14T12:36:05.854Z,61.30
2022-08-14T12:38:43.777Z,61.20
2022-08-14T12:41:20.572Z,60.20
2022-08-14T12:44:05.993Z,60.40
2022-08-14T12:46:36.701Z,60.20
2022-08-14T12:49:13.388Z,60.00
2022-08-14T12:51:55.292Z,60.90
2022-08-14T12:54:28.596Z,61.30
2022-08-14T12:57:42.028Z,61.60
2022-08-14T13:00:23.173Z,60.40
2022-08-14T13:02:54.860Z,61.00
2022-08-14T13:05:34.963Z,60.80
2022-08-14T13:08:06.057Z,60.30
2022-08-14T13:10:58.249Z,60.20
2022-08-14T13:13:34.430Z,59.90
2022-08-14T13:16:05.207Z,59.00
2022-08-14T13:18:48.425Z,59.30
2022-08-14T13:21:26.370Z,59.20
2022-08-14T13:23:54.440Z,59.80
2022-08-14T13:26:24.186Z,61.80
2022-08-14T13:29:01.465Z,60.20
2022-08-14T13:31:34.292Z,58.50
2022-08-14T13:34:03.329Z,58.80
2022-08-14T13:36:51.832Z,59.40
2022-08-14T13:39:20.880Z,59.20
2022-08-14T13:41:56.101Z,59.20
2022-08-14T13:44:27.012Z,59.90
2022-08-14T13:46:53.863Z,58.50
2022-08-14T13:49:21.041Z,57.50
2022-08-14T13:51:57.746Z,58.00
2022-08-14T13:54:30.098Z,60.00
2022-08-14T13:57:01.066Z,65.70
2022-08-14T14:02:08.065Z,57.30
2022-08-14T14:04:40.380Z,58.60
2022-08-14T14:07:14.149Z,56.30
2022-08-14T14:09:52.831Z,57.00
2022-08-14T14:12:37.744Z,56.50
2022-08-14T14:15:09.826Z,55.70
2022-08-14T14:17:39.641Z,59.20
2022-08-14T14:20:15.166Z,55.60
2022-08-14T14:23:02.764Z,56.60
2022-08-14T14:25:45.579Z,57.20
2022-08-14T14:28:23.907Z,57.00
2022-08-14T14:30:57.024Z,58.40
2022-08-14T14:33:45.306Z,58.50
2022-08-14T14:36:14.762Z,59.30
2022-08-14T14:38:44.280Z,58.90
2022-08-14T14:41:14.746Z,59.40
2022-08-14T14:43:44.839Z,60.70
2022-08-14T14:46:14.543Z,58.30
2022-08-14T14:48:46.781Z,60.30
2022-08-14T14:51:22.196Z,59.50
2022-08-14T14:53:49.312Z,58.90
2022-08-14T14:56:50.316Z,59.80
2022-08-14T14:59:03.351Z,59.70
2022-08-14T15:01:35.624Z,60.40
2022-08-14T15:04:08.071Z,59.00
2022-08-14T15:06:53.086Z,60.90
2022-08-14T15:09:20.575Z,59.50
2022-08-14T15:11:50.924Z,59.10
2022-08-14T15:14:56.166Z,59.40
2022-08-14T15:17:06.462Z,60.00
2022-08-14T15:19:33.392Z,60.10
2022-08-14T15:22:00.543Z,59.20
2022-08-14T15:24:27.487Z,57.60
2022-08-14T15:26:57.149Z,58.10
2022-08-14T15:29:27.188Z,57.10
2022-08-14T15:31:54.176Z,57.80
2022-08-14T15:34:44.040Z,59.10
2022-08-14T15:37:10.803Z,60.40
2022-08-14T15:39:41.239Z,58.80
2022-08-14T15:42:14.581Z,57.80
2022-08-14T15:44:58.181Z,59.20
2022-08-14T15:47:30.919Z,59.90
2022-08-14T15:50:03.044Z,57.60
2022-08-14T15:52:37.079Z,58.70
2022-08-14T15:55:08.624Z,57.80
2022-08-14T15:57:37.065Z,58.00
2022-08-14T16:00:43.370Z,58.40
2022-08-14T16:03:15.580Z,58.10
2022-08-14T16:05:44.017Z,57.80
2022-08-14T16:08:28.731Z,57.60
2022-08-14T16:10:57.604Z,58.30
2022-08-14T16:13:42.004Z,58.50
2022-08-14T16:16:48.005Z,58.20
2022-08-14T16:19:11.308Z,59.00
2022-08-14T16:22:01.474Z,58.40
2022-08-14T16:24:33.185Z,58.80
2022-08-14T16:27:01.615Z,57.20
2022-08-14T16:29:34.474Z,58.80
2022-08-14T16:32:33.094Z,57.10
2022-08-14T16:34:54.929Z,56.60
2022-08-14T16:37:30.903Z,59.50
2022-08-14T16:40:03.399Z,59.20
2022-08-14T16:43:02.387Z,58.30
2022-08-14T16:45:28.747Z,59.10
2022-08-14T16:47:56.844Z,59.50
2022-08-14T16:50:43.446Z,59.70
2022-08-14T16:53:10.534Z,59.70
2022-08-14T16:55:51.120Z,60.40
2022-08-14T16:58:27.147Z,59.80
2022-08-14T17:01:24.811Z,61.70
2022-08-14T17:04:01.110Z,61.20
2022-08-14T17:06:42.981Z,60.90
2022-08-14T17:09:24.586Z,61.70
2022-08-14T17:12:07.566Z,59.40
2022-08-14T17:14:54.739Z,62.90
2022-08-14T17:17:26.573Z,63.50
2022-08-14T17:20:01.080Z,61.70
2022-08-14T17:22:58.336Z,61.60
2022-08-14T17:25:36.414Z,60.40
2022-08-14T17:28:52.073Z,61.00
2022-08-14T17:31:08.434Z,60.30
2022-08-14T17:33:44.334Z,61.90
2022-08-14T17:36:23.205Z,61.30
2022-08-14T17:39:08.541Z,60.80
2022-08-14T17:42:02.858Z,60.10
2022-08-14T17:44:42.422Z,60.30
2022-08-14T17:47:14.864Z,61.30
2022-08-14T17:49:47.727Z,61.40
2022-08-14T17:52:34.326Z,60.00
2022-08-14T17:55:12.743Z,62.30
2022-08-14T17:57:58.739Z,62.50
2022-08-14T18:00:26.314Z,60.10
2022-08-14T18:02:57.423Z,60.30
2022-08-14T18:06:09.964Z,64.10
2022-08-14T18:08:33.732Z,62.30
2022-08-14T18:11:03.340Z,62.40
2022-08-14T18:13:50.719Z,61.10
2022-08-14T18:16:22.513Z,62.20
2022-08-14T18:18:51.236Z,63.90
2022-08-14T18:21:42.735Z,64.50
2022-08-14T18:24:28.258Z,65.70
2022-08-14T18:27:17.306Z,66.70
2022-08-14T18:30:32.133Z,66.30
2022-08-14T18:32:55.101Z,65.10
2022-08-14T18:35:45.720Z,63.50
2022-08-14T18:38:25.997Z,63.00
2022-08-14T18:41:37.529Z,62.00
2022-08-14T18:44:10.296Z,61.70
2022-08-14T18:47:10.057Z,62.20
2022-08-14T18:50:26.363Z,61.90
2022-08-14T18:52:53.620Z,61.70
2022-08-14T18:55:21.226Z,61.80
2022-08-14T18:58:20.795Z,61.70
2022-08-14T19:00:56.038Z,62.00
2022-08-14T19:03:36.396Z,62.80
2022-08-14T19:06:09.086Z,62.70
2022-08-14T19:08:47.602Z,63.60
2022-08-14T19:11:32.782Z,63.20
2022-08-14T19:14:04.981Z,64.30
2022-08-14T19:16:34.230Z,64.20
2022-08-14T19:19:08.584Z,64.40
2022-08-14T19:21:55.267Z,64.80
2022-08-14T19:24:34.249Z,65.10
2022-08-14T19:27:23.637Z,64.50
2022-08-14T19:30:20.514Z,65.20
2022-08-14T19:32:51.065Z,65.60
2022-08-14T19:35:24.948Z,65.80
2022-08-14T19:38:32.490Z,66.30
2022-08-14T19:41:01.628Z,66.70
2022-08-14T19:43:50.654Z,66.70
2022-08-14T19:46:39.215Z,67.00
2022-08-14T19:49:23.421Z,67.00
2022-08-14T19:52:03.546Z,66.80
2022-08-14T19:54:31.657Z,69.10
2022-08-14T19:57:03.049Z,70.00
2022-08-14T19:59:36.626Z,71.70
2022-08-14T20:02:29.839Z,68.60
2022-08-14T20:04:59.377Z,69.90
2022-08-14T20:08:00.406Z,71.30
2022-08-14T20:11:05.557Z,70.90
2022-08-14T20:13:32.746Z,70.00
2022-08-14T20:16:12.195Z,70.10
2022-08-14T20:18:51.575Z,69.60
2022-08-14T20:21:21.694Z,70.70
2022-08-14T20:23:49.604Z,71.00
2022-08-14T20:26:32.050Z,69.90
2022-08-14T20:29:05.238Z,71.20
2022-08-14T20:31:37.519Z,69.70
2022-08-14T20:34:18.850Z,70.60
2022-08-14T20:37:09.941Z,70.70
2022-08-14T20:39:54.551Z,70.80
2022-08-14T20:42:43.527Z,70.90
2022-08-14T20:45:23.866Z,71.10
2022-08-14T20:48:09.004Z,71.30
2022-08-14T20:50:36.908Z,71.40
2022-08-14T20:53:32.494Z,71.20
2022-08-14T20:56:27.707Z,70.90
2022-08-14T20:58:51.307Z,71.50
2022-08-14T21:01:19.054Z,71.90
2022-08-14T21:03:57.305Z,70.90
2022-08-14T21:07:22.716Z,72.20
2022-08-14T21:10:04.974Z,72.10
2022-08-14T21:12:34.863Z,72.70
2022-08-14T21:15:00.788Z,72.20
2022-08-14T21:17:30.794Z,72.80
2022-08-14T21:19:58.379Z,73.20
2022-08-14T21:22:26.895Z,73.40
2022-08-14T21:25:01.536Z,73.50
2022-08-14T21:27:37.323Z,73.50
2022-08-14T21:30:08.542Z,73.70
2022-08-14T21:32:50.062Z,74.20
2022-08-14T21:35:24.591Z,74.20
2022-08-14T21:37:52.618Z,74.00
2022-08-14T21:40:40.834Z,74.40
2022-08-14T21:43:17.679Z,74.50
2022-08-14T21:45:56.166Z,74.40
2022-08-14T21:48:29.547Z,74.60
2022-08-14T21:51:53.250Z,74.70
2022-08-14T21:53:58.633Z,75.20
2022-08-14T21:56:38.395Z,75.20
2022-08-14T21:59:17.546Z,75.20
2022-08-14T22:02:00.098Z,75.50
2022-08-14T22:04:34.202Z,75.70
2022-08-14T22:07:10.951Z,75.80
2022-08-14T22:09:43.026Z,75.70
2022-08-14T22:12:45.420Z,75.90
2022-08-14T22:15:03.700Z,76.40
2022-08-14T22:17:34.270Z,76.60
2022-08-14T22:20:05.137Z,76.60
2022-08-14T22:22:32.178Z,77.10
2022-08-14T22:25:00.556Z,77.80
2022-08-14T22:27:32.286Z,78.00
2022-08-14T22:30:00.282Z,77.40
2022-08-14T22:32:56.047Z,77.60
2022-08-14T22:35:15.582Z,77.80
2022-08-14T22:37:44.762Z,78.40
2022-08-14T22:40:16.975Z,78.30
2022-08-14T22:43:07.585Z,78.90
2022-08-14T22:45:39.402Z,79.20
2022-08-14T22:48:10.900Z,79.40
2022-08-14T22:50:53.147Z,79.40
2022-08-14T22:53:20.973Z,80.00
2022-08-14T22:55:52.034Z,80.60
2022-08-14T22:58:31.349Z,80.80
2022-08-14T23:01:01.082Z,82.00
2022-08-14T23:03:28.722Z,81.50
2022-08-14T23:05:55.728Z,81.50
2022-08-14T23:09:00.399Z,82.00
2022-08-14T23:11:11.433Z,82.10
2022-08-14T23:13:43.704Z,83.20
2022-08-14T23:16:19.883Z,82.30
2022-08-14T23:18:53.865Z,82.50
2022-08-14T23:21:24.396Z,82.30
2022-08-14T23:23:54.924Z,82.90
2022-08-14T23:26:47.938Z,82.40
2022-08-14T23:29:14.592Z,83.50
2022-08-14T23:31:44.759Z,83.10
2022-08-14T23:34:20.843Z,83.30
2022-08-14T23:36:55.634Z,83.70
2022-08-14T23:39:33.072Z,83.80
2022-08-14T23:42:07.630Z,84.70
2022-08-14T23:44:37.541Z,84.40
2022-08-14T23:47:10.578Z,84.50
2022-08-14T23:49:59.995Z,85.00
2022-08-14T23:52:51.380Z,84.70
2022-08-14T23:55:15.993Z,84.20
2022-08-14T23:57:57.603Z,84.50
